sensor_id;sensor_type;location;lat;lon;timestamp;pressure;altitude;pressure_sealevel;temperature;humidity
7966;BME280;4028;43.272;26.932;2023-03-20T00:01:12;99572.41;;;5.76;100.00
7966;BME280;4028;43.272;26.932;2023-03-20T00:03:38;99571.16;;;5.81;100.00
7966;BME280;4028;43.272;26.932;2023-03-20T00:06:04;99572.63;;;5.85;100.00
7966;BME280;4028;43.272;26.932;2023-03-20T00:08:29;99571.56;;;5.88;100.00
7966;BME280;4028;43.272;26.932;2023-03-20T00:10:57;99568.38;;;5.97;100.00
7966;BME280;4028;43.272;26.932;2023-03-20T00:13:26;99562.13;;;5.85;100.00
7966;BME280;4028;43.272;26.932;2023-03-20T00:15:53;99557.00;;;5.84;100.00
7966;BME280;4028;43.272;26.932;2023-03-20T00:18:21;99555.72;;;5.77;100.00
7966;BME280;4028;43.272;26.932;2023-03-20T00:20:49;99553.84;;;5.79;100.00
7966;BME280;4028;43.272;26.932;2023-03-20T00:23:16;99551.53;;;5.74;100.00
7966;BME280;4028;43.272;26.932;2023-03-20T00:25:43;99542.16;;;5.70;100.00
7966;BME280;4028;43.272;26.932;2023-03-20T00:28:41;99531.78;;;5.68;100.00
7966;BME280;4028;43.272;26.932;2023-03-20T00:31:28;99539.72;;;5.67;100.00
7966;BME280;4028;43.272;26.932;2023-03-20T00:33:59;99543.41;;;5.64;100.00
7966;BME280;4028;43.272;26.932;2023-03-20T00:36:26;99543.19;;;5.67;100.00
7966;BME280;4028;43.272;26.932;2023-03-20T00:38:52;99536.25;;;5.66;100.00
7966;BME280;4028;43.272;26.932;2023-03-20T00:44:00;99534.94;;;5.73;100.00
7966;BME280;4028;43.272;26.932;2023-03-20T00:46:28;99533.66;;;5.79;100.00
7966;BME280;4028;43.272;26.932;2023-03-20T00:48:56;99533.25;;;5.85;100.00
7966;BME280;4028;43.272;26.932;2023-03-20T00:51:21;99527.34;;;5.82;100.00
7966;BME280;4028;43.272;26.932;2023-03-20T00:53:47;99532.47;;;5.83;100.00
7966;BME280;4028;43.272;26.932;2023-03-20T00:56:42;99516.31;;;5.77;100.00
7966;BME280;4028;43.272;26.932;2023-03-20T00:59:16;99508.84;;;5.70;100.00
7966;BME280;4028;43.272;26.932;2023-03-20T01:01:43;99515.91;;;5.70;100.00
7966;BME280;4028;43.272;26.932;2023-03-20T01:04:14;99517.34;;;5.61;100.00
7966;BME280;4028;43.272;26.932;2023-03-20T01:06:41;99508.84;;;5.58;100.00
7966;BME280;4028;43.272;26.932;2023-03-20T01:09:06;99508.84;;;5.58;100.00
7966;BME280;4028;43.272;26.932;2023-03-20T01:11:32;99506.53;;;5.53;100.00
7966;BME280;4028;43.272;26.932;2023-03-20T01:13:58;99491.31;;;5.58;100.00
7966;BME280;4028;43.272;26.932;2023-03-20T01:16:25;99492.34;;;5.56;100.00
7966;BME280;4028;43.272;26.932;2023-03-20T01:18:51;99501.09;;;5.69;100.00
7966;BME280;4028;43.272;26.932;2023-03-20T01:21:18;99501.41;;;5.64;100.00
7966;BME280;4028;43.272;26.932;2023-03-20T01:23:44;99501.06;;;5.56;100.00
7966;BME280;4028;43.272;26.932;2023-03-20T01:26:34;99516.41;;;5.62;100.00
7966;BME280;4028;43.272;26.932;2023-03-20T01:29:01;99501.25;;;5.40;100.00
7966;BME280;4028;43.272;26.932;2023-03-20T01:31:26;99508.00;;;5.44;100.00
7966;BME280;4028;43.272;26.932;2023-03-20T01:33:52;99505.91;;;5.50;100.00
7966;BME280;4028;43.272;26.932;2023-03-20T01:36:20;99496.44;;;5.47;100.00
7966;BME280;4028;43.272;26.932;2023-03-20T01:38:53;99504.72;;;5.41;100.00
7966;BME280;4028;43.272;26.932;2023-03-20T01:41:20;99494.44;;;5.51;100.00
7966;BME280;4028;43.272;26.932;2023-03-20T01:43:47;99494.97;;;5.43;100.00
7966;BME280;4028;43.272;26.932;2023-03-20T01:46:16;99493.69;;;5.36;100.00
7966;BME280;4028;43.272;26.932;2023-03-20T01:51:14;99490.13;;;5.37;100.00
7966;BME280;4028;43.272;26.932;2023-03-20T01:53:40;99478.72;;;5.38;100.00
7966;BME280;4028;43.272;26.932;2023-03-20T01:56:06;99493.44;;;5.53;100.00
7966;BME280;4028;43.272;26.932;2023-03-20T01:58:35;99487.09;;;5.43;100.00
7966;BME280;4028;43.272;26.932;2023-03-20T02:01:03;99478.59;;;5.52;100.00
7966;BME280;4028;43.272;26.932;2023-03-20T02:03:29;99463.47;;;5.56;100.00
7966;BME280;4028;43.272;26.932;2023-03-20T02:05:55;99468.94;;;5.53;100.00
7966;BME280;4028;43.272;26.932;2023-03-20T02:08:29;99473.69;;;5.60;100.00
7966;BME280;4028;43.272;26.932;2023-03-20T02:10:57;99472.50;;;5.52;100.00
7966;BME280;4028;43.272;26.932;2023-03-20T02:13:25;99465.47;;;5.52;100.00
7966;BME280;4028;43.272;26.932;2023-03-20T02:16:08;99469.03;;;5.51;100.00
7966;BME280;4028;43.272;26.932;2023-03-20T02:18:35;99470.72;;;5.52;100.00
7966;BME280;4028;43.272;26.932;2023-03-20T02:29:39;99465.16;;;5.44;100.00
7966;BME280;4028;43.272;26.932;2023-03-20T02:43:13;99461.69;;;5.43;100.00
7966;BME280;4028;43.272;26.932;2023-03-20T02:46:02;99468.94;;;5.40;100.00
7966;BME280;4028;43.272;26.932;2023-03-20T02:51:34;99466.81;;;5.19;100.00
7966;BME280;4028;43.272;26.932;2023-03-20T02:54:27;99466.81;;;5.32;100.00
7966;BME280;4028;43.272;26.932;2023-03-20T02:59:45;99471.44;;;5.41;100.00
7966;BME280;4028;43.272;26.932;2023-03-20T03:02:17;99464.72;;;5.37;100.00
7966;BME280;4028;43.272;26.932;2023-03-20T03:04:51;99453.38;;;5.24;100.00
7966;BME280;4028;43.272;26.932;2023-03-20T03:07:21;99458.78;;;5.48;100.00
7966;BME280;4028;43.272;26.932;2023-03-20T03:09:52;99460.53;;;5.47;100.00
7966;BME280;4028;43.272;26.932;2023-03-20T03:12:27;99468.28;;;5.36;100.00
7966;BME280;4028;43.272;26.932;2023-03-20T03:15:06;99460.59;;;5.20;100.00
7966;BME280;4028;43.272;26.932;2023-03-20T03:17:38;99461.03;;;5.14;100.00
7966;BME280;4028;43.272;26.932;2023-03-20T03:20:13;99473.13;;;5.30;100.00
7966;BME280;4028;43.272;26.932;2023-03-20T03:22:41;99461.03;;;5.27;100.00
7966;BME280;4028;43.272;26.932;2023-03-20T03:25:09;99471.00;;;5.22;100.00
7966;BME280;4028;43.272;26.932;2023-03-20T03:27:39;99463.53;;;5.16;100.00
7966;BME280;4028;43.272;26.932;2023-03-20T03:30:24;99464.06;;;5.08;100.00
7966;BME280;4028;43.272;26.932;2023-03-20T03:35:36;99462.63;;;5.17;100.00
7966;BME280;4028;43.272;26.932;2023-03-20T03:43:33;99454.03;;;5.28;100.00
7966;BME280;4028;43.272;26.932;2023-03-20T03:46:04;99453.81;;;5.43;100.00
7966;BME280;4028;43.272;26.932;2023-03-20T03:48:39;99452.34;;;5.39;100.00
7966;BME280;4028;43.272;26.932;2023-03-20T03:51:10;99453.31;;;5.38;100.00
7966;BME280;4028;43.272;26.932;2023-03-20T03:53:44;99446.47;;;5.36;100.00
7966;BME280;4028;43.272;26.932;2023-03-20T03:56:15;99456.84;;;5.25;100.00
7966;BME280;4028;43.272;26.932;2023-03-20T03:58:48;99458.75;;;5.22;100.00
7966;BME280;4028;43.272;26.932;2023-03-20T04:01:17;99450.56;;;5.40;100.00
7966;BME280;4028;43.272;26.932;2023-03-20T04:03:52;99452.66;;;5.35;100.00
7966;BME280;4028;43.272;26.932;2023-03-20T04:06:20;99457.25;;;5.31;100.00
7966;BME280;4028;43.272;26.932;2023-03-20T04:08:46;99452.53;;;5.24;100.00
7966;BME280;4028;43.272;26.932;2023-03-20T04:11:20;99458.75;;;5.22;100.00
7966;BME280;4028;43.272;26.932;2023-03-20T04:13:48;99457.91;;;5.35;100.00
7966;BME280;4028;43.272;26.932;2023-03-20T04:16:15;99457.38;;;5.30;100.00
7966;BME280;4028;43.272;26.932;2023-03-20T04:18:42;99454.53;;;5.20;100.00
7966;BME280;4028;43.272;26.932;2023-03-20T04:21:08;99452.72;;;5.20;100.00
7966;BME280;4028;43.272;26.932;2023-03-20T04:23:34;99453.38;;;5.24;100.00
7966;BME280;4028;43.272;26.932;2023-03-20T04:26:00;99455.59;;;5.30;100.00
7966;BME280;4028;43.272;26.932;2023-03-20T04:28:26;99463.88;;;5.37;100.00
7966;BME280;4028;43.272;26.932;2023-03-20T04:30:57;99456.84;;;5.37;100.00
7966;BME280;4028;43.272;26.932;2023-03-20T04:33:24;99451.50;;;5.39;100.00
7966;BME280;4028;43.272;26.932;2023-03-20T04:35:50;99451.28;;;5.42;100.00
7966;BME280;4028;43.272;26.932;2023-03-20T04:38:16;99446.97;;;5.41;100.00
7966;BME280;4028;43.272;26.932;2023-03-20T04:40:43;99447.06;;;5.27;100.00
7966;BME280;4028;43.272;26.932;2023-03-20T04:43:09;99455.16;;;5.24;100.00
7966;BME280;4028;43.272;26.932;2023-03-20T04:45:35;99465.25;;;5.30;100.00
7966;BME280;4028;43.272;26.932;2023-03-20T04:48:00;99460.88;;;5.43;100.00
7966;BME280;4028;43.272;26.932;2023-03-20T04:50:26;99445.94;;;5.31;100.00
7966;BME280;4028;43.272;26.932;2023-03-20T04:52:51;99464.63;;;5.39;100.00
7966;BME280;4028;43.272;26.932;2023-03-20T04:55:17;99465.78;;;5.35;100.00
7966;BME280;4028;43.272;26.932;2023-03-20T04:57:42;99465.66;;;5.36;100.00
7966;BME280;4028;43.272;26.932;2023-03-20T05:00:08;99456.75;;;5.39;100.00
7966;BME280;4028;43.272;26.932;2023-03-20T05:02:34;99464.00;;;5.35;100.00
7966;BME280;4028;43.272;26.932;2023-03-20T05:04:59;99459.28;;;5.40;100.00
7966;BME280;4028;43.272;26.932;2023-03-20T05:07:25;99455.72;;;5.54;100.00
7966;BME280;4028;43.272;26.932;2023-03-20T05:09:50;99454.22;;;5.37;100.00
7966;BME280;4028;43.272;26.932;2023-03-20T05:12:16;99465.66;;;5.36;100.00
7966;BME280;4028;43.272;26.932;2023-03-20T05:14:42;99455.63;;;5.43;100.00
7966;BME280;4028;43.272;26.932;2023-03-20T05:17:07;99463.56;;;5.41;100.00
7966;BME280;4028;43.272;26.932;2023-03-20T05:19:33;99453.19;;;5.40;100.00
7966;BME280;4028;43.272;26.932;2023-03-20T05:21:58;99466.94;;;5.43;100.00
7966;BME280;4028;43.272;26.932;2023-03-20T05:24:24;99466.41;;;5.38;100.00
7966;BME280;4028;43.272;26.932;2023-03-20T05:26:49;99474.19;;;5.40;100.00
7966;BME280;4028;43.272;26.932;2023-03-20T05:29:15;99454.22;;;5.37;100.00
7966;BME280;4028;43.272;26.932;2023-03-20T05:31:40;99484.88;;;5.37;100.00
7966;BME280;4028;43.272;26.932;2023-03-20T05:34:06;99487.72;;;5.46;100.00
7966;BME280;4028;43.272;26.932;2023-03-20T05:36:31;99492.25;;;5.44;100.00
7966;BME280;4028;43.272;26.932;2023-03-20T05:38:57;99493.72;;;5.48;100.00
7966;BME280;4028;43.272;26.932;2023-03-20T05:41:22;99492.06;;;5.60;100.00
7966;BME280;4028;43.272;26.932;2023-03-20T05:43:48;99492.28;;;5.70;100.00
7966;BME280;4028;43.272;26.932;2023-03-20T05:46:13;99486.38;;;5.66;100.00
7966;BME280;4028;43.272;26.932;2023-03-20T05:48:39;99495.72;;;5.58;100.00
7966;BME280;4028;43.272;26.932;2023-03-20T05:51:05;99487.09;;;5.56;100.00
7966;BME280;4028;43.272;26.932;2023-03-20T05:53:30;99474.50;;;5.48;100.00
7966;BME280;4028;43.272;26.932;2023-03-20T05:55:56;99499.38;;;5.68;100.00
7966;BME280;4028;43.272;26.932;2023-03-20T05:58:21;99502.97;;;5.67;100.00
7966;BME280;4028;43.272;26.932;2023-03-20T06:00:47;99495.22;;;5.65;100.00
7966;BME280;4028;43.272;26.932;2023-03-20T06:03:12;99489.22;;;5.63;100.00
7966;BME280;4028;43.272;26.932;2023-03-20T06:05:38;99496.56;;;5.71;100.00
7966;BME280;4028;43.272;26.932;2023-03-20T06:08:03;99490.16;;;5.62;100.00
7966;BME280;4028;43.272;26.932;2023-03-20T06:10:30;99488.06;;;5.67;100.00
7966;BME280;4028;43.272;26.932;2023-03-20T06:12:56;99493.94;;;5.71;100.00
7966;BME280;4028;43.272;26.932;2023-03-20T06:15:25;99492.06;;;5.86;100.00
7966;BME280;4028;43.272;26.932;2023-03-20T06:17:51;99494.91;;;6.08;100.00
7966;BME280;4028;43.272;26.932;2023-03-20T06:20:16;99488.41;;;6.01;100.00
7966;BME280;4028;43.272;26.932;2023-03-20T06:22:42;99499.22;;;6.09;100.00
7966;BME280;4028;43.272;26.932;2023-03-20T06:25:08;99486.50;;;6.16;100.00
7966;BME280;4028;43.272;26.932;2023-03-20T06:27:34;99489.75;;;6.07;100.00
7966;BME280;4028;43.272;26.932;2023-03-20T06:29:59;99490.72;;;6.06;100.00
7966;BME280;4028;43.272;26.932;2023-03-20T06:32:25;99489.63;;;5.83;100.00
7966;BME280;4028;43.272;26.932;2023-03-20T06:34:51;99491.72;;;5.78;100.00
7966;BME280;4028;43.272;26.932;2023-03-20T06:37:17;99497.94;;;5.77;100.00
7966;BME280;4028;43.272;26.932;2023-03-20T06:39:42;99487.75;;;5.85;100.00
7966;BME280;4028;43.272;26.932;2023-03-20T06:42:08;99488.09;;;5.93;100.00
7966;BME280;4028;43.272;26.932;2023-03-20T06:44:33;99490.50;;;5.96;100.00
7966;BME280;4028;43.272;26.932;2023-03-20T06:46:59;99492.38;;;6.07;100.00
7966;BME280;4028;43.272;26.932;2023-03-20T06:49:25;99488.72;;;6.09;100.00
7966;BME280;4028;43.272;26.932;2023-03-20T06:51:52;99451.31;;;5.80;100.00
7966;BME280;4028;43.272;26.932;2023-03-20T06:54:18;99487.66;;;5.73;100.00
7966;BME280;4028;43.272;26.932;2023-03-20T06:56:43;99487.53;;;5.88;100.00
7966;BME280;4028;43.272;26.932;2023-03-20T06:59:09;99494.19;;;6.06;100.00
7966;BME280;4028;43.272;26.932;2023-03-20T07:01:34;99485.41;;;6.31;100.00
7966;BME280;4028;43.272;26.932;2023-03-20T07:04:00;99485.63;;;6.28;100.00
7966;BME280;4028;43.272;26.932;2023-03-20T07:06:25;99492.03;;;6.37;100.00
7966;BME280;4028;43.272;26.932;2023-03-20T07:08:51;99491.59;;;6.43;100.00
7966;BME280;4028;43.272;26.932;2023-03-20T07:11:17;99487.03;;;6.58;100.00
7966;BME280;4028;43.272;26.932;2023-03-20T07:13:43;99488.66;;;6.71;100.00
7966;BME280;4028;43.272;26.932;2023-03-20T07:16:09;99484.44;;;6.82;100.00
7966;BME280;4028;43.272;26.932;2023-03-20T07:18:35;99477.75;;;6.89;100.00
7966;BME280;4028;43.272;26.932;2023-03-20T07:21:03;99488.44;;;6.98;100.00
7966;BME280;4028;43.272;26.932;2023-03-20T07:23:31;99485.44;;;6.92;100.00
7966;BME280;4028;43.272;26.932;2023-03-20T07:25:57;99476.88;;;6.77;100.00
7966;BME280;4028;43.272;26.932;2023-03-20T07:28:23;99472.69;;;6.86;100.00
7966;BME280;4028;43.272;26.932;2023-03-20T07:30:48;99466.78;;;6.95;100.00
7966;BME280;4028;43.272;26.932;2023-03-20T07:33:14;99478.41;;;7.03;100.00
7966;BME280;4028;43.272;26.932;2023-03-20T07:35:39;99472.56;;;7.11;100.00
7966;BME280;4028;43.272;26.932;2023-03-20T07:38:05;99460.72;;;7.06;100.00
7966;BME280;4028;43.272;26.932;2023-03-20T07:40:31;99477.78;;;7.24;100.00
7966;BME280;4028;43.272;26.932;2023-03-20T07:42:57;99472.97;;;7.18;100.00
7966;BME280;4028;43.272;26.932;2023-03-20T07:45:23;99481.97;;;7.26;100.00
7966;BME280;4028;43.272;26.932;2023-03-20T07:47:48;99480.19;;;7.27;100.00
7966;BME280;4028;43.272;26.932;2023-03-20T07:50:14;99479.59;;;7.35;100.00
7966;BME280;4028;43.272;26.932;2023-03-20T07:52:43;99475.50;;;7.19;100.00
7966;BME280;4028;43.272;26.932;2023-03-20T07:55:09;99488.00;;;7.40;100.00
7966;BME280;4028;43.272;26.932;2023-03-20T07:57:35;99487.44;;;7.47;100.00
7966;BME280;4028;43.272;26.932;2023-03-20T08:00:01;99489.56;;;7.42;100.00
7966;BME280;4028;43.272;26.932;2023-03-20T08:02:26;99488.72;;;7.42;100.00
7966;BME280;4028;43.272;26.932;2023-03-20T08:04:53;99491.47;;;7.40;100.00
7966;BME280;4028;43.272;26.932;2023-03-20T08:07:18;99485.84;;;7.45;100.00
7966;BME280;4028;43.272;26.932;2023-03-20T08:09:44;99492.88;;;7.68;100.00
7966;BME280;4028;43.272;26.932;2023-03-20T08:12:09;99497.94;;;7.94;100.00
7966;BME280;4028;43.272;26.932;2023-03-20T08:14:35;99486.91;;;8.11;100.00
7966;BME280;4028;43.272;26.932;2023-03-20T08:17:03;99487.53;;;8.15;100.00
7966;BME280;4028;43.272;26.932;2023-03-20T08:19:28;99487.38;;;8.16;100.00
7966;BME280;4028;43.272;26.932;2023-03-20T08:21:54;99487.63;;;8.24;100.00
7966;BME280;4028;43.272;26.932;2023-03-20T08:24:19;99484.13;;;8.24;100.00
7966;BME280;4028;43.272;26.932;2023-03-20T08:26:46;99487.03;;;8.21;100.00
7966;BME280;4028;43.272;26.932;2023-03-20T08:29:11;99488.50;;;8.36;100.00
7966;BME280;4028;43.272;26.932;2023-03-20T08:31:38;99486.91;;;8.22;100.00
7966;BME280;4028;43.272;26.932;2023-03-20T08:34:04;99488.81;;;8.31;100.00
7966;BME280;4028;43.272;26.932;2023-03-20T08:36:30;99490.88;;;8.50;100.00
7966;BME280;4028;43.272;26.932;2023-03-20T08:38:55;99497.66;;;8.64;100.00
7966;BME280;4028;43.272;26.932;2023-03-20T08:41:21;99497.16;;;8.81;100.00
7966;BME280;4028;43.272;26.932;2023-03-20T08:43:46;99500.38;;;8.85;100.00
7966;BME280;4028;43.272;26.932;2023-03-20T08:46:12;99487.31;;;8.83;100.00
7966;BME280;4028;43.272;26.932;2023-03-20T08:48:37;99488.66;;;9.10;100.00
7966;BME280;4028;43.272;26.932;2023-03-20T08:51:03;99492.03;;;9.12;100.00
7966;BME280;4028;43.272;26.932;2023-03-20T08:53:29;99482.88;;;9.16;100.00
7966;BME280;4028;43.272;26.932;2023-03-20T08:55:54;99479.28;;;9.17;100.00
7966;BME280;4028;43.272;26.932;2023-03-20T08:58:21;99477.88;;;9.13;100.00
7966;BME280;4028;43.272;26.932;2023-03-20T09:00:47;99475.56;;;9.41;100.00
7966;BME280;4028;43.272;26.932;2023-03-20T09:03:14;99472.81;;;9.63;100.00
7966;BME280;4028;43.272;26.932;2023-03-20T09:05:42;99466.19;;;9.99;100.00
7966;BME280;4028;43.272;26.932;2023-03-20T09:08:08;99464.94;;;10.24;100.00
7966;BME280;4028;43.272;26.932;2023-03-20T09:10:34;99458.31;;;10.59;100.00
7966;BME280;4028;43.272;26.932;2023-03-20T09:13:00;99460.03;;;10.89;100.00
7966;BME280;4028;43.272;26.932;2023-03-20T09:15:26;99461.16;;;11.35;100.00
7966;BME280;4028;43.272;26.932;2023-03-20T09:17:51;99458.09;;;12.06;100.00
7966;BME280;4028;43.272;26.932;2023-03-20T09:20:17;99460.63;;;12.35;100.00
7966;BME280;4028;43.272;26.932;2023-03-20T09:22:42;99455.09;;;12.91;100.00
7966;BME280;4028;43.272;26.932;2023-03-20T09:25:10;99445.41;;;13.62;100.00
7966;BME280;4028;43.272;26.932;2023-03-20T09:27:36;99443.78;;;14.29;100.00
7966;BME280;4028;43.272;26.932;2023-03-20T09:30:03;99437.59;;;14.54;100.00
7966;BME280;4028;43.272;26.932;2023-03-20T09:32:29;99444.38;;;14.49;96.50
7966;BME280;4028;43.272;26.932;2023-03-20T09:34:54;99425.59;;;14.50;95.63
7966;BME280;4028;43.272;26.932;2023-03-20T09:37:20;99431.72;;;14.09;100.00
7966;BME280;4028;43.272;26.932;2023-03-20T09:39:46;99429.72;;;14.11;100.00
7966;BME280;4028;43.272;26.932;2023-03-20T09:53:46;99425.31;;;14.94;96.96
7966;BME280;4028;43.272;26.932;2023-03-20T09:55:52;99438.81;;;15.50;86.43
7966;BME280;4028;43.272;26.932;2023-03-20T09:58:33;99411.66;;;15.54;80.31
7966;BME280;4028;43.272;26.932;2023-03-20T10:01:02;99419.94;;;15.92;78.28
7966;BME280;4028;43.272;26.932;2023-03-20T10:03:38;99415.94;;;16.35;74.49
7966;BME280;4028;43.272;26.932;2023-03-20T10:06:12;99414.47;;;16.33;72.75
7966;BME280;4028;43.272;26.932;2023-03-20T10:08:38;99381.81;;;16.15;71.83
7966;BME280;4028;43.272;26.932;2023-03-20T10:11:06;99409.19;;;16.48;70.76
7966;BME280;4028;43.272;26.932;2023-03-20T10:13:50;99407.72;;;16.76;69.45
7966;BME280;4028;43.272;26.932;2023-03-20T10:16:30;99405.91;;;17.00;67.51
7966;BME280;4028;43.272;26.932;2023-03-20T10:21:41;99395.94;;;17.08;64.98
7966;BME280;4028;43.272;26.932;2023-03-20T10:25:02;99392.00;;;17.42;62.36
7966;BME280;4028;43.272;26.932;2023-03-20T10:27:21;99386.94;;;17.47;61.74
7966;BME280;4028;43.272;26.932;2023-03-20T10:32:46;99381.38;;;17.49;60.87
7966;BME280;4028;43.272;26.932;2023-03-20T10:35:27;99374.50;;;17.84;59.48
7966;BME280;4028;43.272;26.932;2023-03-20T10:40:40;99368.59;;;17.74;56.94
7966;BME280;4028;43.272;26.932;2023-03-20T10:43:19;99371.28;;;17.88;57.49
7966;BME280;4028;43.272;26.932;2023-03-20T10:45:55;99366.22;;;17.93;56.57
7966;BME280;4028;43.272;26.932;2023-03-20T10:48:31;99367.69;;;17.81;55.60
7966;BME280;4028;43.272;26.932;2023-03-20T10:51:00;99343.03;;;17.71;56.65
7966;BME280;4028;43.272;26.932;2023-03-20T10:53:43;99355.78;;;17.99;55.76
7966;BME280;4028;43.272;26.932;2023-03-20T10:56:19;99351.28;;;18.21;54.89
7966;BME280;4028;43.272;26.932;2023-03-20T10:58:58;99352.38;;;18.26;54.11
7966;BME280;4028;43.272;26.932;2023-03-20T11:01:27;99348.81;;;18.19;55.60
7966;BME280;4028;43.272;26.932;2023-03-20T11:03:53;99344.84;;;18.15;55.65
7966;BME280;4028;43.272;26.932;2023-03-20T11:06:26;99337.13;;;18.63;55.82
7966;BME280;4028;43.272;26.932;2023-03-20T11:08:53;99329.53;;;18.66;53.92
7966;BME280;4028;43.272;26.932;2023-03-20T11:11:26;99330.34;;;18.82;54.43
7966;BME280;4028;43.272;26.932;2023-03-20T11:13:54;99325.16;;;18.80;55.05
7966;BME280;4028;43.272;26.932;2023-03-20T11:16:23;99325.75;;;18.76;52.39
7966;BME280;4028;43.272;26.932;2023-03-20T11:18:51;99317.84;;;18.89;53.15
7966;BME280;4028;43.272;26.932;2023-03-20T11:21:24;99312.22;;;19.12;52.81
7966;BME280;4028;43.272;26.932;2023-03-20T11:23:51;99308.38;;;19.21;50.13
7966;BME280;4028;43.272;26.932;2023-03-20T11:28:58;99300.38;;;19.28;50.21
7966;BME280;4028;43.272;26.932;2023-03-20T11:31:34;99294.34;;;19.54;50.32
7966;BME280;4028;43.272;26.932;2023-03-20T11:36:53;99278.47;;;18.96;49.36
7966;BME280;4028;43.272;26.932;2023-03-20T11:39:23;99283.88;;;18.75;51.10
7966;BME280;4028;43.272;26.932;2023-03-20T11:41:55;99280.22;;;18.82;49.12
7966;BME280;4028;43.272;26.932;2023-03-20T11:44:34;99273.13;;;18.96;48.97
7966;BME280;4028;43.272;26.932;2023-03-20T11:47:03;99277.16;;;19.13;46.88
7966;BME280;4028;43.272;26.932;2023-03-20T11:49:31;99260.81;;;19.08;47.08
7966;BME280;4028;43.272;26.932;2023-03-20T11:52:08;99243.28;;;19.06;47.12
7966;BME280;4028;43.272;26.932;2023-03-20T11:54:36;99263.59;;;19.21;47.23
7966;BME280;4028;43.272;26.932;2023-03-20T11:57:02;99255.44;;;19.36;47.06
7966;BME280;4028;43.272;26.932;2023-03-20T11:59:33;99230.66;;;19.34;45.68
7966;BME280;4028;43.272;26.932;2023-03-20T12:02:01;99244.31;;;19.39;44.71
7966;BME280;4028;43.272;26.932;2023-03-20T12:04:30;99252.03;;;19.14;44.86
7966;BME280;4028;43.272;26.932;2023-03-20T12:07:03;99248.78;;;19.26;45.96
7966;BME280;4028;43.272;26.932;2023-03-20T12:10:09;99238.84;;;19.19;46.82
7966;BME280;4028;43.272;26.932;2023-03-20T12:15:35;99251.06;;;18.94;48.81
7966;BME280;4028;43.272;26.932;2023-03-20T12:18:13;99242.16;;;18.93;49.67
7966;BME280;4028;43.272;26.932;2023-03-20T12:23:52;99241.63;;;19.05;50.88
7966;BME280;4028;43.272;26.932;2023-03-20T12:28:55;99226.84;;;19.50;50.66
7966;BME280;4028;43.272;26.932;2023-03-20T12:31:28;99222.84;;;19.39;50.68
7966;BME280;4028;43.272;26.932;2023-03-20T12:36:47;99220.13;;;19.33;48.75
7966;BME280;4028;43.272;26.932;2023-03-20T12:39:16;99210.09;;;19.48;49.46
7966;BME280;4028;43.272;26.932;2023-03-20T12:47:32;99205.78;;;20.08;47.00
7966;BME280;4028;43.272;26.932;2023-03-20T13:01:06;99199.69;;;19.32;47.38
7966;BME280;4028;43.272;26.932;2023-03-20T13:09:14;99189.69;;;19.12;46.90
7966;BME280;4028;43.272;26.932;2023-03-20T13:25:52;99175.19;;;18.72;47.28
7966;BME280;4028;43.272;26.932;2023-03-20T13:37:20;99164.78;;;18.84;46.30
7966;BME280;4028;43.272;26.932;2023-03-20T13:40:27;99161.06;;;18.85;46.15
7966;BME280;4028;43.272;26.932;2023-03-20T13:45:43;99146.16;;;18.76;45.97
7966;BME280;4028;43.272;26.932;2023-03-20T13:53:34;99156.81;;;18.97;45.60
7966;BME280;4028;43.272;26.932;2023-03-20T13:59:36;99147.25;;;18.88;45.13
7966;BME280;4028;43.272;26.932;2023-03-20T14:02:19;99138.91;;;19.04;44.24
7966;BME280;4028;43.272;26.932;2023-03-20T14:04:50;99156.09;;;19.16;43.77
7966;BME280;4028;43.272;26.932;2023-03-20T14:07:34;99150.88;;;19.08;43.09
7966;BME280;4028;43.272;26.932;2023-03-20T14:10:33;99148.75;;;18.97;43.39
7966;BME280;4028;43.272;26.932;2023-03-20T14:13:08;99148.31;;;18.93;43.23
7966;BME280;4028;43.272;26.932;2023-03-20T14:15:37;99142.53;;;18.90;41.79
7966;BME280;4028;43.272;26.932;2023-03-20T14:18:13;99131.41;;;18.93;42.17
7966;BME280;4028;43.272;26.932;2023-03-20T14:20:41;99139.97;;;19.10;42.26
7966;BME280;4028;43.272;26.932;2023-03-20T14:23:16;99120.41;;;19.22;42.34
7966;BME280;4028;43.272;26.932;2023-03-20T14:25:43;99134.41;;;19.11;43.20
7966;BME280;4028;43.272;26.932;2023-03-20T14:33:24;99134.75;;;19.02;43.69
7966;BME280;4028;43.272;26.932;2023-03-20T14:36:10;99138.00;;;18.90;44.26
7966;BME280;4028;43.272;26.932;2023-03-20T14:38:52;99136.16;;;18.91;43.76
7966;BME280;4028;43.272;26.932;2023-03-20T14:41:32;99112.88;;;18.63;43.75
7966;BME280;4028;43.272;26.932;2023-03-20T14:44:25;99127.09;;;18.64;44.00
7966;BME280;4028;43.272;26.932;2023-03-20T14:47:16;99131.22;;;18.66;43.02
7966;BME280;4028;43.272;26.932;2023-03-20T14:49:52;99132.44;;;18.64;43.23
7966;BME280;4028;43.272;26.932;2023-03-20T14:52:34;99126.06;;;18.65;42.79
7966;BME280;4028;43.272;26.932;2023-03-20T14:57:52;99115.25;;;18.52;43.66
7966;BME280;4028;43.272;26.932;2023-03-20T15:00:26;99114.81;;;18.48;43.43
7966;BME280;4028;43.272;26.932;2023-03-20T15:03:08;99117.09;;;18.51;42.45
7966;BME280;4028;43.272;26.932;2023-03-20T15:05:36;99115.69;;;18.27;42.96
7966;BME280;4028;43.272;26.932;2023-03-20T15:08:20;99128.88;;;18.29;43.28
7966;BME280;4028;43.272;26.932;2023-03-20T15:10:50;99128.41;;;18.18;43.53
7966;BME280;4028;43.272;26.932;2023-03-20T15:13:18;99122.78;;;18.13;43.54
7966;BME280;4028;43.272;26.932;2023-03-20T15:18:19;99130.31;;;18.03;43.30
7966;BME280;4028;43.272;26.932;2023-03-20T15:20:45;99117.72;;;17.97;43.83
7966;BME280;4028;43.272;26.932;2023-03-20T15:23:12;99123.06;;;17.97;43.53
7966;BME280;4028;43.272;26.932;2023-03-20T15:25:40;99125.09;;;17.95;44.82
7966;BME280;4028;43.272;26.932;2023-03-20T15:28:12;99120.69;;;17.87;50.48
7966;BME280;4028;43.272;26.932;2023-03-20T15:30:39;99134.19;;;17.79;53.48
7966;BME280;4028;43.272;26.932;2023-03-20T15:33:06;99120.84;;;17.64;57.94
7966;BME280;4028;43.272;26.932;2023-03-20T15:35:36;99125.63;;;17.33;64.21
7966;BME280;4028;43.272;26.932;2023-03-20T15:38:04;99122.09;;;17.11;68.23
7966;BME280;4028;43.272;26.932;2023-03-20T15:40:33;99123.59;;;16.84;73.55
7966;BME280;4028;43.272;26.932;2023-03-20T15:43:24;99122.44;;;16.63;81.70
7966;BME280;4028;43.272;26.932;2023-03-20T15:45:51;99125.81;;;16.57;84.61